Terminal Aerodrome Forecast
Issued by NWS Bismarck, ND

Home | Current Version | Previous Version | Graphics & Text | Print | Product List | Glossary On
Versions: 1 2 3 4 5 6 7 8 9 10 11 12 13 14 15 16 17
000
FTUS43 KBIS 221000 AAA
TAFBIS
TAF AMD
KBIS 221039Z 2211/2306 10005KT 1SM BR OVC003
      TEMPO 2211/2214 1/2SM FZFG OVC002
     FM221400 35011KT 3SM -SN BR OVC012
     FM230000 36016KT 2SM -SN BR OVC008=

USA.gov is the U.S. government's official web portal to all federal, state and local government web resources and services.